Time;durP1;ratioP1;P1;durP2;ratioP2;P2;SDS_P1;SDS_P2;PMS_P1;PMS_P2;Temp;Humidity;BMP_temperature;BMP_pressure;BME280_temperature;BME280_humidity;BME280_pressure;Samples;Min_cycle;Max_cycle;Signal;HPM_P1;HPM_P2
2023/04/03 00:02:46;;;;;;;2.83;1.00;;;;;;;7.11;55.77;101199.25;10399533;28;20719;-64
2023/04/03 00:07:49;;;;;;;4.78;2.00;;;;;;;7.26;56.51;101219.66;10397854;28;20061;-65
2023/04/03 00:12:51;;;;;;;2.42;1.77;;;;;;;7.04;56.48;101211.97;10393377;28;20107;-64
2023/04/03 00:17:52;;;;;;;3.30;2.35;;;;;;;7.17;56.54;101219.28;10407948;28;20048;-65
2023/04/03 00:22:54;;;;;;;3.72;1.98;;;;;;;7.14;56.47;101230.03;10400924;28;20049;-65
2023/04/03 00:27:56;;;;;;;2.97;2.25;;;;;;;7.05;57.08;101205.72;10393535;28;20715;-65
2023/04/03 00:33:00;;;;;;;2.63;1.80;;;;;;;7.19;57.45;101228.88;10391283;28;20049;-64
2023/04/03 00:38:04;;;;;;;3.20;1.75;;;;;;;7.18;57.40;101234.25;10400518;28;20118;-65
2023/04/03 00:43:16;;;;;;;3.20;1.30;;;;;;;7.11;57.03;101215.16;10399452;28;20055;-65
2023/04/03 00:48:28;;;;;;;1.77;1.30;;;;;;;7.17;57.79;101240.47;10397377;28;20059;-64
2023/04/03 00:53:40;;;;;;;4.47;1.15;;;;;;;7.06;57.51;101225.97;10402747;28;20063;-65
2023/04/03 00:58:48;;;;;;;1.10;1.00;;;;;;;7.15;57.49;101239.69;10405101;28;20053;-64
2023/04/03 01:03:50;;;;;;;4.40;1.13;;;;;;;7.07;57.17;101230.34;10404321;28;20052;-64
2023/04/03 01:08:52;;;;;;;2.72;1.10;;;;;;;7.15;57.39;101227.31;10415644;28;20515;-65
2023/04/03 01:13:54;;;;;;;2.10;0.90;;;;;;;7.04;57.72;101219.91;10407530;28;20128;-64
2023/04/03 01:18:56;;;;;;;1.50;1.33;;;;;;;7.01;57.29;101213.88;10410710;28;20601;-64
2023/04/03 01:24:21;;;;;;;1.98;1.58;;;;;;;7.19;56.40;101228.00;10410583;28;20222;-64
2023/04/03 01:29:23;;;;;;;3.90;1.40;;;;;;;7.01;56.70;101209.47;10388575;28;20049;-65
2023/04/03 01:34:26;;;;;;;2.00;1.25;;;;;;;7.07;56.55;101230.34;10395158;28;20052;-64
2023/04/03 01:39:28;;;;;;;3.17;1.17;;;;;;;7.11;56.80;101233.69;10402984;28;20151;-65
2023/04/03 01:44:29;;;;;;;1.65;1.08;;;;;;;6.97;57.06;101221.16;10399120;28;20066;-64
2023/04/03 01:49:31;;;;;;;2.47;1.10;;;;;;;7.09;56.53;101232.91;10401848;28;20074;-65
2023/04/03 01:54:32;;;;;;;2.15;0.80;;;;;;;6.99;56.72;101216.63;10403923;28;20076;-65
2023/04/03 01:59:34;;;;;;;4.05;1.10;;;;;;;7.08;56.84;101232.03;10403155;28;20048;-65
2023/04/03 02:04:36;;;;;;;4.15;1.33;;;;;;;7.03;56.83;101239.38;10395590;28;20465;-65
2023/04/03 02:09:37;;;;;;;3.13;0.95;;;;;;;7.04;57.42;101217.25;10399277;28;20114;-65
2023/04/03 02:14:39;;;;;;;3.42;1.40;;;;;;;7.03;57.06;101222.63;10402545;28;20718;-66
2023/04/03 02:19:41;;;;;;;5.03;1.25;;;;;;;7.04;57.34;101230.50;10402131;28;20121;-66
2023/04/03 02:24:43;;;;;;;2.88;1.40;;;;;;;7.10;57.67;101237.28;10394373;28;20591;-65
2023/04/03 02:29:44;;;;;;;2.88;1.05;;;;;;;7.01;57.73;101217.41;10411584;28;20129;-66
2023/04/03 02:34:46;;;;;;;2.83;1.15;;;;;;;7.07;58.11;101243.56;10406550;28;20049;-66
2023/04/03 02:39:47;;;;;;;2.45;0.90;;;;;;;6.95;58.19;101230.09;10404092;28;20120;-64
2023/04/03 02:44:49;;;;;;;1.58;1.13;;;;;;;7.05;58.32;101234.84;10403487;28;20211;-65
2023/04/03 02:49:52;;;;;;;1.02;0.88;;;;;;;6.92;58.54;101230.25;10405523;28;20044;-65
2023/04/03 02:54:54;;;;;;;3.25;0.98;;;;;;;6.84;58.83;101222.69;10402935;28;20593;-65
2023/04/03 02:59:55;;;;;;;4.30;0.80;;;;;;;7.02;59.54;101247.38;10404065;28;20685;-65
2023/04/03 03:04:57;;;;;;;2.75;1.17;;;;;;;6.87;59.39;101227.81;10378916;28;20053;-64
2023/04/03 03:09:59;;;;;;;3.10;1.40;;;;;;;6.92;58.58;101241.69;10401619;28;20127;-66
2023/04/03 03:15:00;;;;;;;3.00;0.73;;;;;;;6.80;58.38;101247.56;10400030;28;20118;-65
2023/04/03 03:20:05;;;;;;;2.40;1.00;;;;;;;6.70;57.96;101232.16;10403137;28;20126;-65
2023/04/03 03:25:08;;;;;;;3.58;0.80;;;;;;;6.83;58.03;101242.13;10403743;28;20048;-64
2023/04/03 03:30:10;;;;;;;1.58;0.73;;;;;;;6.61;57.82;101216.72;10402165;28;20045;-65
2023/04/03 03:35:11;;;;;;;3.35;1.38;;;;;;;6.68;57.45;101243.72;10400566;28;20060;-65
2023/04/03 03:40:13;;;;;;;3.55;0.98;;;;;;;6.68;57.22;101244.59;10402086;28;20053;-66
2023/04/03 03:45:14;;;;;;;2.90;0.85;;;;;;;6.56;56.33;101250.50;10395847;28;20052;-67
2023/04/03 03:50:16;;;;;;;1.45;0.68;;;;;;;6.47;56.78;101229.75;10400811;28;20668;-65
2023/04/03 03:55:18;;;;;;;3.28;1.15;;;;;;;6.17;56.11;101231.13;10403282;28;20580;-65
2023/04/03 04:00:20;;;;;;;1.65;0.68;;;;;;;6.44;56.18;101251.94;10402624;28;20060;-65
2023/04/03 04:05:22;;;;;;;4.60;1.42;;;;;;;6.29;55.70;101248.22;10389874;28;20057;-65
2023/04/03 04:10:23;;;;;;;2.13;1.00;;;;;;;6.22;56.11;101254.72;10388577;28;20137;-65
2023/04/03 04:15:26;;;;;;;4.03;1.55;;;;;;;6.30;55.77;101265.78;10380248;28;20143;-65
2023/04/03 04:20:28;;;;;;;3.72;1.35;;;;;;;6.17;56.59;101252.28;10356507;28;20907;-66
2023/04/03 04:25:30;;;;;;;2.03;1.05;;;;;;;6.27;56.12;101262.44;10367582;28;20217;-66
2023/04/03 04:30:31;;;;;;;2.60;1.30;;;;;;;6.22;55.94;101272.38;10388747;28;20041;-65
2023/04/03 04:35:33;;;;;;;3.55;0.95;;;;;;;6.13;56.44;101278.94;10384625;28;20592;-66
2023/04/03 04:40:37;;;;;;;3.50;0.82;;;;;;;5.95;57.24;101275.31;10385674;28;20067;-66
2023/04/03 04:45:39;;;;;;;3.47;0.95;;;;;;;5.86;56.48;101250.16;10386744;28;20123;-66
2023/04/03 04:50:40;;;;;;;4.15;1.13;;;;;;;5.88;56.86;101279.16;10391627;28;20044;-65
2023/04/03 04:55:42;;;;;;;2.42;1.23;;;;;;;5.78;56.38;101254.91;10391960;28;20592;-65
2023/04/03 05:00:44;;;;;;;3.38;0.95;;;;;;;5.91;56.26;101274.56;10390291;28;20154;-65
2023/04/03 05:05:45;;;;;;;2.80;1.65;;;;;;;5.88;56.63;101290.56;10385199;28;20049;-65
2023/04/03 05:10:47;;;;;;;3.47;1.70;;;;;;;5.90;56.60;101288.72;10387044;28;20138;-65
2023/04/03 05:15:49;;;;;;;1.75;0.98;;;;;;;5.69;56.81;101279.09;10380941;28;20661;-65
2023/04/03 05:20:51;;;;;;;3.20;1.17;;;;;;;5.75;56.74;101290.25;10381857;28;20056;-66
2023/04/03 05:25:53;;;;;;;2.20;1.08;;;;;;;5.87;57.51;101310.00;10386679;28;20056;-65
2023/04/03 05:30:56;;;;;;;4.40;1.40;;;;;;;5.82;57.11;101311.97;10384259;28;20184;-65
2023/04/03 05:36:03;;;;;;;4.10;1.90;;;;;;;5.83;57.02;101313.69;10378772;28;20171;-64
2023/04/03 05:41:05;;;;;;;5.03;2.08;;;;;;;5.66;56.93;101302.09;10392300;28;20044;-65
2023/04/03 05:46:17;;;;;;;2.30;1.10;;;;;;;5.76;57.41;101322.81;10389001;28;21104;-64
2023/04/03 05:51:25;;;;;;;5.55;1.90;;;;;;;5.74;57.39;101322.03;10349887;28;20458;-65
2023/04/03 05:56:27;;;;;;;5.47;1.60;;;;;;;5.69;57.06;101329.28;10388915;28;20322;-65
2023/04/03 06:01:28;;;;;;;3.58;1.60;;;;;;;5.71;57.46;101352.06;10389553;28;20198;-65
2023/04/03 06:06:49;;;;;;;5.15;1.92;;;;;;;5.68;57.49;101336.34;10385251;28;20068;-65
2023/04/03 06:11:51;;;;;;;3.03;1.67;;;;;;;5.74;58.06;101351.09;10384315;28;20045;-65
2023/04/03 06:16:53;;;;;;;2.78;1.27;;;;;;;5.79;57.78;101346.47;10392270;28;20060;-63
2023/04/03 06:21:55;;;;;;;6.43;1.60;;;;;;;6.01;57.15;101365.78;10382053;28;20691;-65
2023/04/03 06:26:58;;;;;;;7.30;2.35;;;;;;;6.11;56.18;101365.38;10384262;28;20056;-66
2023/04/03 06:32:00;;;;;;;3.35;1.92;;;;;;;6.17;56.21;101359.81;10396495;28;21249;-67
2023/04/03 06:37:01;;;;;;;5.43;1.70;;;;;;;6.36;56.35;101384.53;10378031;28;20056;-66
2023/04/03 06:42:03;;;;;;;5.75;2.70;;;;;;;6.51;56.53;101397.97;10378500;28;20815;-66
2023/04/03 06:47:05;;;;;;;5.50;1.77;;;;;;;6.49;55.29;101391.91;10380271;28;20057;-67
2023/04/03 06:52:07;;;;;;;3.88;1.92;;;;;;;6.60;55.40;101389.63;10382522;28;20082;-66
2023/04/03 06:57:09;;;;;;;6.15;1.60;;;;;;;6.72;55.43;101390.84;10385323;28;20088;-67
2023/04/03 07:02:12;;;;;;;2.63;1.48;;;;;;;6.66;54.76;101388.50;10386191;28;20099;-67
2023/04/03 07:07:14;;;;;;;5.35;2.30;;;;;;;6.84;54.32;101407.94;10378048;28;20061;-66
2023/04/03 07:12:16;;;;;;;6.07;2.25;;;;;;;6.95;54.22;101399.50;10379058;28;20060;-66
2023/04/03 07:17:18;;;;;;;4.28;1.65;;;;;;;7.01;54.12;101410.69;10379644;28;20056;-67
2023/04/03 07:22:22;;;;;;;5.10;1.60;;;;;;;7.07;55.24;101420.97;10390901;28;20570;-66
2023/04/03 07:27:23;;;;;;;2.13;1.25;;;;;;;7.21;54.60;101417.66;10389259;28;20045;-67
2023/04/03 07:32:25;;;;;;;5.18;1.73;;;;;;;7.31;54.53;101430.47;10384342;28;20706;-68
2023/04/03 07:37:27;;;;;;;3.42;1.98;;;;;;;7.56;52.92;101432.78;10384573;28;20320;-67
2023/04/03 07:42:29;;;;;;;3.70;1.58;;;;;;;7.67;52.22;101446.38;10402823;28;20060;-67
2023/04/03 07:47:31;;;;;;;3.83;1.63;;;;;;;7.66;50.64;101434.06;10400399;28;20057;-66
2023/04/03 07:52:33;;;;;;;2.38;1.52;;;;;;;7.62;51.01;101416.56;10372262;28;20056;-65
2023/04/03 07:57:35;;;;;;;4.43;1.67;;;;;;;7.98;50.81;101444.81;10378263;28;20721;-65
2023/04/03 08:02:36;;;;;;;4.35;1.90;;;;;;;8.08;49.63;101447.88;10384734;28;20048;-65
2023/04/03 08:07:38;;;;;;;3.40;1.55;;;;;;;8.10;49.61;101446.84;10400231;28;20052;-65
2023/04/03 08:12:40;;;;;;;4.72;1.55;;;;;;;8.11;49.28;101440.63;10368922;28;20050;-65
2023/04/03 08:17:42;;;;;;;3.53;1.63;;;;;;;8.29;48.90;101441.47;10362501;28;20370;-65
2023/04/03 08:22:43;;;;;;;4.03;1.58;;;;;;;8.43;48.82;101435.44;10390435;28;21373;-65
2023/04/03 08:27:45;;;;;;;2.78;1.35;;;;;;;8.49;47.71;101426.31;10406628;28;20077;-66
2023/04/03 08:32:47;;;;;;;4.68;2.03;;;;;;;8.65;46.49;101432.53;10394387;28;20095;-66
2023/04/03 08:37:48;;;;;;;4.88;1.65;;;;;;;8.78;47.33;101424.78;10388377;28;20076;-66
2023/04/03 08:43:19;;;;;;;4.72;1.58;;;;;;;9.15;46.53;101424.53;10399968;28;20105;-64
2023/04/03 08:48:32;;;;;;;3.95;1.50;;;;;;;9.19;45.25;101424.28;10369972;28;20389;-65
2023/04/03 08:53:39;;;;;;;4.97;2.33;;;;;;;9.37;44.13;101411.75;10405659;28;20052;-67
2023/04/03 08:58:52;;;;;;;3.53;1.73;;;;;;;9.69;44.02;101432.13;10398414;28;20135;-64
2023/04/03 09:03:54;;;;;;;3.22;1.30;;;;;;;9.87;43.96;101431.03;10374477;28;20277;-64
2023/04/03 09:09:13;;;;;;;2.65;1.35;;;;;;;9.72;43.11;101406.19;10386317;28;20935;-64
2023/04/03 09:14:40;;;;;;;2.65;1.55;;;;;;;10.03;42.30;101431.00;10406373;28;20052;-64
2023/04/03 09:19:51;;;;;;;3.45;1.40;;;;;;;10.32;42.03;101422.22;10370291;28;20067;-64
2023/04/03 09:24:59;;;;;;;2.72;1.30;;;;;;;10.30;41.79;101410.78;10405983;28;20120;-65
2023/04/03 09:30:02;;;;;;;1.67;1.13;;;;;;;10.27;41.33;101436.63;10408310;28;20068;-64
2023/04/03 09:35:17;;;;;;;2.90;1.23;;;;;;;10.78;41.72;101428.25;10423570;28;20752;-64
2023/04/03 09:40:38;;;;;;;2.30;1.70;;;;;;;11.13;39.84;101416.28;10399836;28;20048;-65
2023/04/03 09:45:40;;;;;;;2.88;1.33;;;;;;;11.22;39.21;101421.03;10407118;28;20052;-65
2023/04/03 09:50:52;;;;;;;3.63;1.35;;;;;;;10.99;39.37;101414.53;10410599;28;20135;-65
2023/04/03 09:55:55;;;;;;;2.67;1.77;;;;;;;10.94;39.93;101406.81;10375891;28;20111;-65
2023/04/03 10:00:58;;;;;;;3.20;1.42;;;;;;;11.54;39.19;101402.06;10367121;28;21481;-65
2023/04/03 10:06:01;;;;;;;1.43;1.30;;;;;;;12.34;37.91;101407.34;10401742;28;20048;-68
2023/04/03 10:11:21;;;;;;;3.33;1.33;;;;;;;13.02;36.30;101399.88;10415094;28;20147;-65
2023/04/03 10:16:52;;;;;;;4.13;1.60;;;;;;;12.92;35.69;101393.50;10367415;28;20042;-65
2023/04/03 10:22:00;;;;;;;2.60;1.55;;;;;;;14.22;33.66;101405.28;10404767;28;20037;-65
2023/04/03 10:27:22;;;;;;;4.00;1.58;;;;;;;17.83;27.87;101386.25;10354869;28;20080;-65
2023/04/03 10:32:23;;;;;;;2.97;1.33;;;;;;;20.03;24.97;101403.59;10398690;28;20041;-65
2023/04/03 10:37:29;;;;;;;2.05;1.40;;;;;;;17.74;27.84;101389.78;10404887;28;20053;-65
2023/04/03 10:42:44;;;;;;;3.15;1.55;;;;;;;17.01;28.30;101403.63;10404808;28;20051;-65
2023/04/03 10:48:31;;;;;;;2.05;1.45;;;;;;;17.46;27.61;101388.81;10397079;28;20739;-66
2023/04/03 10:53:41;;;;;;;2.40;1.15;;;;;;;18.34;26.17;101380.63;10387079;28;20048;-65
2023/04/03 10:58:50;;;;;;;2.92;1.40;;;;;;;23.12;21.58;101370.88;10381471;28;20049;-65
2023/04/03 11:03:57;;;;;;;3.45;1.20;;;;;;;24.78;18.29;101360.16;10417121;28;20523;-65
2023/04/03 11:09:07;;;;;;;2.05;1.20;;;;;;;26.13;17.03;101362.34;10389154;28;20041;-65
2023/04/03 11:14:29;;;;;;;1.85;1.13;;;;;;;27.36;15.73;101361.63;10407234;28;20450;-65
2023/04/03 11:19:47;;;;;;;1.40;0.90;;;;;;;27.02;15.63;101349.75;10404012;28;20103;-66
2023/04/03 11:25:02;;;;;;;2.20;1.08;;;;;;;28.88;14.37;101343.25;10387920;28;20047;-66
2023/04/03 11:30:09;;;;;;;2.90;1.30;;;;;;;30.01;13.58;101335.31;10399328;28;20098;-66
2023/04/03 11:35:12;;;;;;;1.63;0.95;;;;;;;30.40;12.99;101335.97;10376099;28;20208;-67
2023/04/03 11:40:17;;;;;;;3.08;1.23;;;;;;;31.00;11.98;101343.44;10341959;28;20073;-66
2023/04/03 11:45:26;;;;;;;2.05;1.02;;;;;;;31.08;12.82;101324.94;10366784;28;20048;-67
2023/04/03 11:50:38;;;;;;;1.40;1.05;;;;;;;31.94;11.38;101338.34;10399223;28;20048;-68
2023/04/03 11:55:48;;;;;;;2.53;1.00;;;;;;;31.48;10.79;101313.28;10409691;28;20045;-68
2023/04/03 12:01:05;;;;;;;2.00;0.80;;;;;;;32.42;11.49;101318.75;10361857;28;20045;-67
2023/04/03 12:06:09;;;;;;;2.38;1.48;;;;;;;31.81;10.71;101311.88;10395002;28;20150;-67
2023/04/03 12:11:14;;;;;;;2.53;1.65;;;;;;;31.06;11.35;101303.16;10403535;28;20114;-68
2023/04/03 12:16:38;;;;;;;2.80;0.93;;;;;;;31.88;10.87;101310.69;10396915;28;20231;-66
2023/04/03 12:21:49;;;;;;;2.67;1.00;;;;;;;29.21;12.68;101303.88;10399205;28;20049;-68
2023/04/03 12:26:57;;;;;;;1.95;0.77;;;;;;;29.30;12.82;101304.44;10398048;28;20053;-67
2023/04/03 12:32:19;;;;;;;1.42;0.60;;;;;;;30.76;12.59;101293.00;10397946;28;22004;-71
2023/04/03 12:37:43;;;;;;;2.85;0.77;;;;;;;31.77;12.08;101291.41;10397429;28;24367;-68
2023/04/03 12:42:58;;;;;;;2.42;1.02;;;;;;;31.75;10.54;101277.06;10378846;28;20057;-68
2023/04/03 12:48:02;;;;;;;1.10;0.80;;;;;;;32.04;11.25;101276.09;10389115;28;20132;-69
2023/04/03 12:53:11;;;;;;;1.58;0.60;;;;;;;30.77;11.47;101272.69;10410774;28;20564;-67
2023/04/03 12:58:16;;;;;;;1.15;0.63;;;;;;;28.25;12.51;101255.47;10401128;28;20187;-69
2023/04/03 13:03:26;;;;;;;1.65;0.70;;;;;;;25.19;14.73;101257.94;10392790;28;20045;-68
2023/04/03 13:08:30;;;;;;;1.92;1.10;;;;;;;23.64;17.05;101266.06;10397457;28;20468;-68
2023/04/03 13:13:32;;;;;;;1.38;0.60;;;;;;;21.92;17.62;101248.97;10397833;28;20762;-69
2023/04/03 13:18:35;;;;;;;1.98;1.00;;;;;;;21.30;18.89;101254.94;10399407;28;20056;-69
2023/04/03 13:23:40;;;;;;;3.75;1.30;;;;;;;20.75;19.52;101268.09;10411817;28;20725;-68
2023/04/03 13:28:45;;;;;;;2.80;1.58;;;;;;;20.06;19.61;101254.63;10410159;28;20055;-70
2023/04/03 13:33:58;;;;;;;4.60;1.60;;;;;;;19.19;20.35;101253.69;10379244;28;20372;-68
2023/04/03 13:39:10;;;;;;;3.03;1.70;;;;;;;18.63;21.02;101226.84;10378663;28;20059;-70
2023/04/03 13:44:20;;;;;;;3.58;2.10;;;;;;;18.38;21.38;101248.13;10395960;28;20163;-70
2023/04/03 13:49:32;;;;;;;3.00;1.85;;;;;;;17.89;21.05;101247.47;10400016;28;20078;-68
2023/04/03 13:54:38;;;;;;;2.65;1.63;;;;;;;17.31;22.05;101230.47;10394752;28;20263;-67
2023/04/03 13:59:44;;;;;;;2.67;1.80;;;;;;;16.89;22.44;101244.22;10400174;28;20182;-67
2023/04/03 14:04:48;;;;;;;;;;;;;;;16.57;23.26;101237.22;10404196;28;20048;-66
2023/04/03 14:09:50;;;;;;;2.27;1.77;;;;;;;16.10;23.47;101220.81;10407587;28;20582;-66
2023/04/03 14:14:52;;;;;;;2.63;1.40;;;;;;;16.00;23.98;101228.84;10391549;28;20049;-66
2023/04/03 14:19:56;;;;;;;3.38;1.40;;;;;;;15.55;24.97;101221.09;10385386;28;20084;-66
2023/04/03 14:25:00;;;;;;;3.13;1.13;;;;;;;14.94;24.82;101208.41;10402974;28;20688;-66
2023/04/03 14:30:03;;;;;;;4.00;2.70;;;;;;;14.78;24.82;101220.38;10406463;28;20713;-66
2023/04/03 14:35:06;;;;;;;1.42;0.95;;;;;;;14.48;25.11;101194.28;10403644;28;20057;-67
2023/04/03 14:40:12;;;;;;;2.78;1.40;;;;;;;14.03;26.03;101172.94;10406546;28;20056;-66
2023/04/03 14:45:15;;;;;;;3.65;1.02;;;;;;;13.79;26.97;101198.84;10404252;28;20064;-66
2023/04/03 14:50:23;;;;;;;2.10;0.73;;;;;;;13.23;28.47;101212.13;10404768;28;20053;-66
2023/04/03 14:55:26;;;;;;;2.03;0.93;;;;;;;13.20;27.98;101204.34;10402874;28;20605;-66
2023/04/03 15:00:27;;;;;;;2.65;0.80;;;;;;;13.02;28.10;101194.06;10408735;28;20060;-66
2023/04/03 15:05:29;;;;;;;2.00;0.73;;;;;;;12.79;27.92;101203.84;10402764;28;20041;-65
2023/04/03 15:10:31;;;;;;;1.45;0.85;;;;;;;12.44;28.02;101190.41;10404611;28;20461;-65
2023/04/03 15:15:38;;;;;;;1.70;0.60;;;;;;;12.19;28.75;101210.91;10401360;28;20144;-65
2023/04/03 15:20:43;;;;;;;3.53;0.68;;;;;;;11.99;29.39;101196.31;10392043;28;20456;-64
2023/04/03 15:25:46;;;;;;;2.60;1.05;;;;;;;11.88;29.03;101185.53;10406229;28;20122;-67
2023/04/03 15:30:48;;;;;;;3.30;1.00;;;;;;;11.82;29.64;101203.66;10398404;28;20071;-68
2023/04/03 15:35:49;;;;;;;2.67;0.77;;;;;;;11.90;30.10;101205.78;10419541;28;20117;-65
2023/04/03 15:40:51;;;;;;;2.65;0.65;;;;;;;11.67;29.84;101180.75;10406957;28;20041;-64
2023/04/03 15:45:56;;;;;;;2.78;1.13;;;;;;;11.52;29.98;101188.00;10403234;28;20697;-66
2023/04/03 15:50:58;;;;;;;1.95;0.57;;;;;;;11.60;30.08;101206.13;10407142;28;20048;-65
2023/04/03 15:55:59;;;;;;;1.83;0.70;;;;;;;11.37;30.25;101189.91;10403442;28;20098;-65
2023/04/03 16:01:02;;;;;;;2.53;1.00;;;;;;;11.19;29.87;101199.19;10399931;28;20566;-65
2023/04/03 16:06:03;;;;;;;2.17;0.90;;;;;;;10.98;30.90;101190.84;10397358;28;20053;-64
2023/04/03 16:11:05;;;;;;;3.33;0.93;;;;;;;11.00;30.85;101184.44;10404865;28;20160;-65
2023/04/03 16:16:09;;;;;;;2.47;0.98;;;;;;;10.93;30.22;101218.63;10402688;28;20047;-62
2023/04/03 16:21:13;;;;;;;1.98;0.80;;;;;;;10.90;30.53;101213.50;10399575;28;20041;-64
2023/04/03 16:26:17;;;;;;;2.33;0.80;;;;;;;10.77;31.09;101201.97;10405170;28;20195;-64
2023/04/03 16:31:19;;;;;;;2.00;0.88;;;;;;;10.69;30.71;101214.91;10407337;28;20510;-64
2023/04/03 16:36:21;;;;;;;1.73;0.77;;;;;;;10.44;31.09;101211.19;10393758;28;20697;-64
2023/04/03 16:41:22;;;;;;;2.40;0.98;;;;;;;10.31;31.34;101205.75;10373827;28;20067;-65
2023/04/03 16:46:24;;;;;;;1.25;0.55;;;;;;;10.15;31.46;101194.41;10384308;28;20053;-64
2023/04/03 16:51:26;;;;;;;2.10;0.80;;;;;;;10.11;31.70;101209.72;10383187;28;20568;-65
2023/04/03 16:56:28;;;;;;;2.30;1.30;;;;;;;10.03;32.00;101220.00;10387811;28;20057;-64
2023/04/03 17:01:30;;;;;;;1.38;0.68;;;;;;;9.79;32.33;101196.63;10375027;28;20053;-65
2023/04/03 17:06:31;;;;;;;3.30;1.45;;;;;;;9.66;32.61;101214.28;10370962;28;20092;-63
2023/04/03 17:11:33;;;;;;;1.55;0.75;;;;;;;9.66;33.16;101215.13;10384526;28;20058;-63
2023/04/03 17:16:37;;;;;;;2.72;0.93;;;;;;;9.55;33.24;101218.44;10387280;28;20049;-64
2023/04/03 17:21:39;;;;;;;4.00;1.45;;;;;;;9.47;33.71;101207.44;10387855;28;20064;-63
2023/04/03 17:26:41;;;;;;;1.88;1.08;;;;;;;9.36;33.58;101212.53;10379036;28;20162;-64
2023/04/03 17:31:43;;;;;;;2.10;0.90;;;;;;;9.34;33.72;101230.38;10379257;28;20095;-64
2023/04/03 17:36:45;;;;;;;2.97;1.02;;;;;;;9.19;33.83;101240.13;10388534;28;20133;-64
2023/04/03 17:41:48;;;;;;;2.20;1.38;;;;;;;9.09;34.43;101245.09;10400614;28;20826;-65
2023/04/03 17:46:50;;;;;;;2.65;1.00;;;;;;;8.90;34.41;101247.13;10392618;28;20084;-64
2023/04/03 17:51:52;;;;;;;2.63;1.30;;;;;;;8.99;34.89;101252.78;10391406;28;20191;-65
2023/04/03 17:56:54;;;;;;;3.65;1.23;;;;;;;8.64;35.81;101220.28;10389030;28;20041;-66
2023/04/03 18:01:56;;;;;;;2.88;0.90;;;;;;;8.73;36.33;101256.06;10389867;28;20059;-65
2023/04/03 18:07:00;;;;;;;2.85;0.80;;;;;;;8.51;36.95;101262.56;10389026;28;20095;-64
2023/04/03 18:12:04;;;;;;;2.75;1.20;;;;;;;8.45;37.32;101268.22;10385895;28;20160;-65
2023/04/03 18:17:06;;;;;;;2.58;1.08;;;;;;;8.46;36.93;101265.47;10382870;28;20257;-64
2023/04/03 18:22:13;;;;;;;1.73;1.13;;;;;;;8.23;37.31;101277.31;10399316;28;20144;-67
2023/04/03 18:27:17;;;;;;;3.88;1.58;;;;;;;8.21;37.20;101270.38;10388651;28;20138;-65
2023/04/03 18:32:20;;;;;;;3.47;1.42;;;;;;;8.19;37.19;101280.22;10398512;28;20053;-64
2023/04/03 18:37:23;;;;;;;3.75;1.15;;;;;;;8.03;37.74;101273.09;10399215;22;20048;-68
2023/04/03 18:42:25;;;;;;;1.90;1.27;;;;;;;8.02;37.54;101274.03;10404627;28;20418;-70
2023/04/03 18:47:27;;;;;;;2.67;1.40;;;;;;;8.02;37.66;101281.16;10430441;28;20103;-66
2023/04/03 18:52:29;;;;;;;3.92;1.20;;;;;;;7.83;38.04;101260.91;10425225;28;20044;-65
2023/04/03 18:57:30;;;;;;;2.80;1.58;;;;;;;7.88;38.57;101284.50;10429332;28;20145;-70
2023/04/03 19:02:32;;;;;;;2.17;1.05;;;;;;;7.77;38.48;101293.88;10429692;28;20405;-69
2023/04/03 19:07:33;;;;;;;1.67;1.15;;;;;;;7.65;38.23;101289.22;10431254;28;20127;-69
2023/04/03 19:12:35;;;;;;;2.83;1.50;;;;;;;7.49;38.21;101301.53;10428727;28;20057;-69
2023/04/03 19:17:37;;;;;;;3.42;1.02;;;;;;;7.39;38.02;101312.59;10422732;28;20056;-64
2023/04/03 19:22:39;;;;;;;2.60;0.93;;;;;;;7.28;37.92;101317.59;10425054;28;20060;-70
2023/04/03 19:27:41;;;;;;;2.47;1.13;;;;;;;7.15;38.13;101316.50;10427367;28;20044;-71
2023/04/03 19:32:42;;;;;;;1.92;1.30;;;;;;;7.16;38.31;101319.06;10424996;28;20056;-69
2023/04/03 19:37:47;;;;;;;2.47;1.10;;;;;;;7.18;38.51;101317.19;10422227;28;20221;-68
2023/04/03 19:42:49;;;;;;;3.15;1.10;;;;;;;6.96;38.52;101312.06;10437110;22;20096;-62
2023/04/03 19:47:52;;;;;;;2.33;0.98;;;;;;;6.92;38.59;101318.47;10390452;28;20084;-64
2023/04/03 19:52:53;;;;;;;2.40;1.33;;;;;;;6.98;38.79;101331.41;10403184;28;20062;-63
2023/04/03 19:58:00;;;;;;;3.75;1.40;;;;;;;6.89;38.98;101323.88;10404083;28;20057;-62
2023/04/03 20:03:03;;;;;;;2.88;1.50;;;;;;;6.76;39.44;101323.63;10448094;23;1518407;-62
2023/04/03 20:08:04;;;;;;;3.10;1.20;;;;;;;6.83;39.63;101332.13;11375549;22;20574;-68
2023/04/03 20:13:09;;;;;;;3.67;1.85;;;;;;;6.69;40.17;101338.91;10442911;28;20052;-70
2023/04/03 20:18:16;;;;;;;2.65;1.30;;;;;;;6.68;39.92;101342.50;10419585;28;20052;-70
2023/04/03 20:23:18;;;;;;;3.83;1.73;;;;;;;6.64;40.45;101343.56;10431349;28;20052;-67
2023/04/03 20:28:21;;;;;;;2.95;1.40;;;;;;;6.57;40.76;101336.00;10430519;28;20582;-70
2023/04/03 20:33:25;;;;;;;2.70;1.27;;;;;;;6.53;40.33;101337.91;10436987;28;20348;-68
2023/04/03 20:38:26;;;;;;;3.15;1.52;;;;;;;6.49;41.00;101342.50;10431795;28;20051;-68
2023/04/03 20:43:28;;;;;;;2.58;1.35;;;;;;;6.47;40.79;101332.91;10424953;28;20116;-67
2023/04/03 20:48:30;;;;;;;2.33;1.63;;;;;;;6.39;41.32;101337.72;10433955;28;20049;-68
2023/04/03 20:53:31;;;;;;;2.85;1.38;;;;;;;6.30;41.23;101338.97;10435142;28;20053;-68
2023/04/03 20:58:34;;;;;;;3.35;1.15;;;;;;;6.23;41.48;101345.47;10431553;28;20569;-68
2023/04/03 21:03:36;;;;;;;3.58;1.65;;;;;;;6.19;41.86;101342.13;10432485;28;20052;-67
2023/04/03 21:09:15;;;;;;;2.40;1.30;;;;;;;6.15;41.76;101335.22;10432229;28;20117;-68
2023/04/03 21:14:55;;;;;;;3.35;1.33;;;;;;;6.10;42.25;101338.09;10450007;28;20619;-68
2023/04/03 21:19:56;;;;;;;3.25;1.40;;;;;;;6.02;41.90;101337.59;10447552;28;20044;-68
2023/04/03 21:24:58;;;;;;;4.85;1.50;;;;;;;5.99;42.24;101320.06;10445350;28;20514;-67
2023/04/03 21:30:02;;;;;;;5.72;1.90;;;;;;;5.94;42.47;101332.56;10437595;28;20053;-70
2023/04/03 21:35:03;;;;;;;3.45;1.63;;;;;;;5.87;42.25;101328.50;10441088;28;20060;-67
2023/04/03 21:40:06;;;;;;;6.90;1.70;;;;;;;5.79;43.06;101320.03;10434988;28;20061;-68
2023/04/03 21:45:09;;;;;;;4.07;2.03;;;;;;;5.75;42.68;101326.38;10440760;28;20514;-67
2023/04/03 21:50:10;;;;;;;3.75;1.45;;;;;;;5.68;42.66;101324.94;10435839;28;20629;-68
2023/04/03 21:55:14;;;;;;;3.22;1.75;;;;;;;5.66;42.64;101327.66;10433364;28;20045;-68
2023/04/03 22:00:16;;;;;;;3.40;1.50;;;;;;;5.62;42.46;101324.25;10431644;28;20573;-65
2023/04/03 22:05:18;;;;;;;2.30;1.25;;;;;;;5.57;42.30;101310.41;10431820;28;20463;-67
2023/04/03 22:10:19;;;;;;;2.90;1.40;;;;;;;5.55;42.75;101312.25;10437193;28;20053;-68
2023/04/03 22:15:21;;;;;;;4.18;1.75;;;;;;;5.47;42.51;101319.63;10426607;28;20049;-69
2023/04/03 22:20:22;;;;;;;3.30;1.60;;;;;;;5.44;43.03;101322.41;10430790;28;20056;-69
2023/04/03 22:25:24;;;;;;;5.13;1.88;;;;;;;5.37;42.80;101310.38;10438885;28;20466;-68
2023/04/03 22:30:26;;;;;;;4.15;2.53;;;;;;;5.35;43.15;101312.25;10428502;28;20511;-66
2023/04/03 22:35:28;;;;;;;3.80;2.00;;;;;;;5.36;43.75;101321.84;10429840;28;20742;-68
2023/04/03 22:40:30;;;;;;;5.05;2.10;;;;;;;5.30;43.29;101326.47;10431022;28;20056;-68
2023/04/03 22:45:32;;;;;;;3.53;2.28;;;;;;;5.29;43.70;101329.19;10430877;28;20129;-67
2023/04/03 22:50:36;;;;;;;3.88;1.30;;;;;;;5.21;43.54;101321.59;10431055;28;20422;-68
2023/04/03 22:55:37;;;;;;;4.70;2.50;;;;;;;5.21;43.33;101320.72;10428638;28;20518;-69
2023/04/03 23:00:38;;;;;;;5.38;3.45;;;;;;;5.11;43.45;101321.09;10435390;28;20456;-66
2023/04/03 23:05:40;;;;;;;6.20;4.57;;;;;;;5.04;43.29;101324.03;10432923;28;20066;-67
2023/04/03 23:10:42;;;;;;;6.57;4.22;;;;;;;5.02;43.33;101310.06;10431547;28;20045;-68
2023/04/03 23:15:43;;;;;;;5.13;3.17;;;;;;;5.00;43.84;101322.44;10429551;28;20052;-68
2023/04/03 23:20:45;;;;;;;5.30;2.35;;;;;;;4.94;43.95;101324.41;10429645;28;20075;-69
2023/04/03 23:25:57;;;;;;;5.45;1.83;;;;;;;4.81;43.82;101311.78;10429197;28;20080;-68
2023/04/03 23:31:05;;;;;;;3.80;1.15;;;;;;;4.89;43.95;101328.16;10427184;28;20123;-68